sensor_id;sensor_type;location;lat;lon;timestamp;P1;durP1;ratioP1;P2;durP2;ratioP2
74535;SDS011;63013;51.104;-115.370;2023-01-26T00:01:55;0.30;;;0.20;;
74535;SDS011;63013;51.104;-115.370;2023-01-26T00:04:22;0.20;;;0.20;;
74535;SDS011;63013;51.104;-115.370;2023-01-26T00:06:50;0.30;;;0.30;;
74535;SDS011;63013;51.104;-115.370;2023-01-26T00:09:20;0.30;;;0.30;;
74535;SDS011;63013;51.104;-115.370;2023-01-26T00:11:57;0.40;;;0.40;;
74535;SDS011;63013;51.104;-115.370;2023-01-26T00:14:28;0.40;;;0.30;;
74535;SDS011;63013;51.104;-115.370;2023-01-26T00:17:19;0.80;;;0.30;;
74535;SDS011;63013;51.104;-115.370;2023-01-26T00:19:54;2.40;;;0.50;;
74535;SDS011;63013;51.104;-115.370;2023-01-26T00:22:25;1.00;;;0.40;;
74535;SDS011;63013;51.104;-115.370;2023-01-26T00:24:53;2.40;;;0.40;;
74535;SDS011;63013;51.104;-115.370;2023-01-26T00:27:20;0.90;;;0.40;;
74535;SDS011;63013;51.104;-115.370;2023-01-26T00:29:47;1.50;;;0.50;;
74535;SDS011;63013;51.104;-115.370;2023-01-26T00:32:15;0.70;;;0.40;;
74535;SDS011;63013;51.104;-115.370;2023-01-26T00:34:42;1.10;;;0.30;;
74535;SDS011;63013;51.104;-115.370;2023-01-26T00:37:10;1.40;;;0.50;;
74535;SDS011;63013;51.104;-115.370;2023-01-26T00:39:37;0.80;;;0.30;;
74535;SDS011;63013;51.104;-115.370;2023-01-26T00:42:04;1.70;;;0.50;;
74535;SDS011;63013;51.104;-115.370;2023-01-26T00:44:32;0.40;;;0.30;;
74535;SDS011;63013;51.104;-115.370;2023-01-26T00:46:59;1.90;;;0.40;;
74535;SDS011;63013;51.104;-115.370;2023-01-26T00:49:26;1.90;;;0.50;;
74535;SDS011;63013;51.104;-115.370;2023-01-26T00:51:53;1.00;;;0.40;;
74535;SDS011;63013;51.104;-115.370;2023-01-26T00:54:23;0.70;;;0.30;;
74535;SDS011;63013;51.104;-115.370;2023-01-26T00:56:51;0.70;;;0.40;;
74535;SDS011;63013;51.104;-115.370;2023-01-26T00:59:18;0.80;;;0.40;;
74535;SDS011;63013;51.104;-115.370;2023-01-26T01:01:46;0.40;;;0.30;;
74535;SDS011;63013;51.104;-115.370;2023-01-26T01:04:15;2.00;;;1.60;;
74535;SDS011;63013;51.104;-115.370;2023-01-26T01:06:45;2.00;;;1.20;;
74535;SDS011;63013;51.104;-115.370;2023-01-26T01:09:15;1.60;;;0.90;;
74535;SDS011;63013;51.104;-115.370;2023-01-26T01:11:43;1.40;;;0.90;;
74535;SDS011;63013;51.104;-115.370;2023-01-26T01:14:11;1.20;;;0.80;;
74535;SDS011;63013;51.104;-115.370;2023-01-26T01:16:39;1.00;;;0.70;;
74535;SDS011;63013;51.104;-115.370;2023-01-26T01:19:07;1.10;;;0.70;;
74535;SDS011;63013;51.104;-115.370;2023-01-26T01:21:41;1.70;;;0.80;;
74535;SDS011;63013;51.104;-115.370;2023-01-26T01:24:11;1.30;;;0.80;;
74535;SDS011;63013;51.104;-115.370;2023-01-26T01:26:39;1.90;;;0.70;;
74535;SDS011;63013;51.104;-115.370;2023-01-26T01:29:08;1.30;;;0.60;;
74535;SDS011;63013;51.104;-115.370;2023-01-26T01:31:42;1.30;;;0.70;;
74535;SDS011;63013;51.104;-115.370;2023-01-26T01:34:09;1.90;;;0.60;;
74535;SDS011;63013;51.104;-115.370;2023-01-26T01:36:37;2.60;;;0.70;;
74535;SDS011;63013;51.104;-115.370;2023-01-26T01:39:04;1.30;;;0.60;;
74535;SDS011;63013;51.104;-115.370;2023-01-26T01:41:31;2.60;;;0.60;;
74535;SDS011;63013;51.104;-115.370;2023-01-26T01:44:12;3.20;;;0.70;;
74535;SDS011;63013;51.104;-115.370;2023-01-26T01:49:29;2.10;;;0.80;;
74535;SDS011;63013;51.104;-115.370;2023-01-26T01:52:38;1.30;;;0.50;;
74535;SDS011;63013;51.104;-115.370;2023-01-26T01:55:07;1.60;;;0.60;;
74535;SDS011;63013;51.104;-115.370;2023-01-26T01:57:40;0.70;;;0.50;;
74535;SDS011;63013;51.104;-115.370;2023-01-26T02:00:13;1.10;;;0.70;;
74535;SDS011;63013;51.104;-115.370;2023-01-26T02:02:47;1.30;;;0.40;;
74535;SDS011;63013;51.104;-115.370;2023-01-26T02:05:54;0.50;;;0.50;;
74535;SDS011;63013;51.104;-115.370;2023-01-26T02:08:29;1.70;;;0.50;;
74535;SDS011;63013;51.104;-115.370;2023-01-26T02:11:41;0.80;;;0.40;;
74535;SDS011;63013;51.104;-115.370;2023-01-26T02:14:13;0.90;;;0.40;;
74535;SDS011;63013;51.104;-115.370;2023-01-26T02:16:47;0.90;;;0.50;;
74535;SDS011;63013;51.104;-115.370;2023-01-26T02:19:22;2.40;;;0.80;;
74535;SDS011;63013;51.104;-115.370;2023-01-26T02:22:20;5.40;;;1.60;;
74535;SDS011;63013;51.104;-115.370;2023-01-26T02:25:12;4.30;;;1.30;;
74535;SDS011;63013;51.104;-115.370;2023-01-26T02:27:50;3.40;;;1.20;;
74535;SDS011;63013;51.104;-115.370;2023-01-26T02:30:17;3.80;;;1.10;;
74535;SDS011;63013;51.104;-115.370;2023-01-26T02:32:45;6.40;;;1.10;;
74535;SDS011;63013;51.104;-115.370;2023-01-26T02:35:12;9.10;;;1.30;;
74535;SDS011;63013;51.104;-115.370;2023-01-26T02:37:39;3.00;;;0.90;;
74535;SDS011;63013;51.104;-115.370;2023-01-26T02:42:52;3.20;;;0.80;;
74535;SDS011;63013;51.104;-115.370;2023-01-26T02:45:20;3.80;;;1.00;;
74535;SDS011;63013;51.104;-115.370;2023-01-26T02:47:49;2.50;;;0.90;;
74535;SDS011;63013;51.104;-115.370;2023-01-26T02:50:16;4.00;;;0.80;;
74535;SDS011;63013;51.104;-115.370;2023-01-26T02:52:43;3.70;;;0.90;;
74535;SDS011;63013;51.104;-115.370;2023-01-26T02:55:11;3.20;;;0.80;;
74535;SDS011;63013;51.104;-115.370;2023-01-26T02:58:10;2.70;;;0.80;;
74535;SDS011;63013;51.104;-115.370;2023-01-26T03:00:38;3.70;;;0.70;;
74535;SDS011;63013;51.104;-115.370;2023-01-26T03:03:14;4.00;;;1.00;;
74535;SDS011;63013;51.104;-115.370;2023-01-26T03:05:45;4.50;;;0.90;;
74535;SDS011;63013;51.104;-115.370;2023-01-26T03:08:12;3.20;;;0.80;;
74535;SDS011;63013;51.104;-115.370;2023-01-26T03:10:40;3.80;;;0.80;;
74535;SDS011;63013;51.104;-115.370;2023-01-26T03:13:08;2.90;;;0.80;;
74535;SDS011;63013;51.104;-115.370;2023-01-26T03:15:35;3.10;;;0.90;;
74535;SDS011;63013;51.104;-115.370;2023-01-26T03:18:14;2.50;;;0.70;;
74535;SDS011;63013;51.104;-115.370;2023-01-26T03:21:03;2.40;;;0.80;;
74535;SDS011;63013;51.104;-115.370;2023-01-26T03:23:50;2.00;;;0.90;;
74535;SDS011;63013;51.104;-115.370;2023-01-26T03:26:36;2.60;;;0.60;;
74535;SDS011;63013;51.104;-115.370;2023-01-26T03:29:22;2.20;;;0.60;;
74535;SDS011;63013;51.104;-115.370;2023-01-26T03:31:52;2.90;;;0.70;;
74535;SDS011;63013;51.104;-115.370;2023-01-26T03:34:24;2.00;;;0.60;;
74535;SDS011;63013;51.104;-115.370;2023-01-26T03:37:01;4.70;;;0.90;;
74535;SDS011;63013;51.104;-115.370;2023-01-26T03:39:33;2.80;;;0.80;;
74535;SDS011;63013;51.104;-115.370;2023-01-26T03:42:21;3.00;;;0.70;;
74535;SDS011;63013;51.104;-115.370;2023-01-26T03:45:10;5.20;;;0.90;;
74535;SDS011;63013;51.104;-115.370;2023-01-26T03:48:07;1.30;;;0.60;;
74535;SDS011;63013;51.104;-115.370;2023-01-26T03:50:55;3.20;;;0.60;;
74535;SDS011;63013;51.104;-115.370;2023-01-26T03:53:42;2.20;;;0.80;;
74535;SDS011;63013;51.104;-115.370;2023-01-26T03:56:40;2.10;;;0.70;;
74535;SDS011;63013;51.104;-115.370;2023-01-26T03:59:24;2.50;;;0.70;;
74535;SDS011;63013;51.104;-115.370;2023-01-26T04:02:13;1.80;;;0.90;;
74535;SDS011;63013;51.104;-115.370;2023-01-26T04:05:07;2.80;;;0.80;;
74535;SDS011;63013;51.104;-115.370;2023-01-26T04:08:01;1.60;;;0.70;;
74535;SDS011;63013;51.104;-115.370;2023-01-26T04:10:52;1.70;;;0.50;;
74535;SDS011;63013;51.104;-115.370;2023-01-26T04:13:31;3.20;;;0.60;;
74535;SDS011;63013;51.104;-115.370;2023-01-26T04:16:19;1.90;;;0.70;;
74535;SDS011;63013;51.104;-115.370;2023-01-26T04:19:05;2.70;;;0.70;;
74535;SDS011;63013;51.104;-115.370;2023-01-26T04:21:50;1.80;;;0.60;;
74535;SDS011;63013;51.104;-115.370;2023-01-26T04:24:18;2.50;;;0.70;;
74535;SDS011;63013;51.104;-115.370;2023-01-26T04:26:47;1.30;;;0.80;;
74535;SDS011;63013;51.104;-115.370;2023-01-26T04:29:15;1.90;;;0.60;;
74535;SDS011;63013;51.104;-115.370;2023-01-26T04:31:43;0.90;;;0.50;;
74535;SDS011;63013;51.104;-115.370;2023-01-26T04:34:13;3.00;;;0.60;;
74535;SDS011;63013;51.104;-115.370;2023-01-26T04:36:41;2.90;;;0.50;;
74535;SDS011;63013;51.104;-115.370;2023-01-26T04:39:09;1.40;;;0.60;;
74535;SDS011;63013;51.104;-115.370;2023-01-26T04:41:36;1.20;;;0.50;;
74535;SDS011;63013;51.104;-115.370;2023-01-26T04:44:03;1.60;;;0.60;;
74535;SDS011;63013;51.104;-115.370;2023-01-26T04:46:31;2.50;;;0.50;;
74535;SDS011;63013;51.104;-115.370;2023-01-26T04:48:58;2.00;;;0.60;;
74535;SDS011;63013;51.104;-115.370;2023-01-26T04:51:25;2.30;;;0.70;;
74535;SDS011;63013;51.104;-115.370;2023-01-26T04:53:53;1.10;;;0.40;;
74535;SDS011;63013;51.104;-115.370;2023-01-26T04:56:38;1.70;;;0.80;;
74535;SDS011;63013;51.104;-115.370;2023-01-26T04:59:06;0.60;;;0.40;;
74535;SDS011;63013;51.104;-115.370;2023-01-26T05:01:35;1.40;;;0.50;;
74535;SDS011;63013;51.104;-115.370;2023-01-26T05:04:04;2.50;;;0.50;;
74535;SDS011;63013;51.104;-115.370;2023-01-26T05:06:36;1.20;;;0.50;;
74535;SDS011;63013;51.104;-115.370;2023-01-26T05:09:04;2.30;;;0.60;;
74535;SDS011;63013;51.104;-115.370;2023-01-26T05:11:31;1.50;;;0.50;;
74535;SDS011;63013;51.104;-115.370;2023-01-26T05:13:59;2.20;;;0.60;;
74535;SDS011;63013;51.104;-115.370;2023-01-26T05:16:28;1.90;;;0.70;;
74535;SDS011;63013;51.104;-115.370;2023-01-26T05:18:59;1.90;;;0.70;;
74535;SDS011;63013;51.104;-115.370;2023-01-26T05:21:36;1.80;;;0.70;;
74535;SDS011;63013;51.104;-115.370;2023-01-26T05:24:03;1.40;;;0.60;;
74535;SDS011;63013;51.104;-115.370;2023-01-26T05:26:34;1.70;;;0.50;;
74535;SDS011;63013;51.104;-115.370;2023-01-26T05:29:02;2.00;;;0.60;;
74535;SDS011;63013;51.104;-115.370;2023-01-26T05:31:29;1.10;;;0.60;;
74535;SDS011;63013;51.104;-115.370;2023-01-26T05:34:00;2.60;;;0.80;;
74535;SDS011;63013;51.104;-115.370;2023-01-26T05:36:27;1.90;;;0.60;;
74535;SDS011;63013;51.104;-115.370;2023-01-26T05:38:57;1.70;;;0.40;;
74535;SDS011;63013;51.104;-115.370;2023-01-26T05:41:43;2.20;;;0.60;;
74535;SDS011;63013;51.104;-115.370;2023-01-26T05:44:10;1.10;;;0.50;;
74535;SDS011;63013;51.104;-115.370;2023-01-26T05:46:37;1.80;;;0.50;;
74535;SDS011;63013;51.104;-115.370;2023-01-26T05:49:11;1.40;;;0.40;;
74535;SDS011;63013;51.104;-115.370;2023-01-26T05:51:39;1.50;;;0.60;;
74535;SDS011;63013;51.104;-115.370;2023-01-26T05:54:06;1.20;;;0.50;;
74535;SDS011;63013;51.104;-115.370;2023-01-26T05:56:34;1.50;;;0.50;;
74535;SDS011;63013;51.104;-115.370;2023-01-26T05:59:10;1.30;;;0.50;;
74535;SDS011;63013;51.104;-115.370;2023-01-26T06:01:37;2.10;;;0.60;;
74535;SDS011;63013;51.104;-115.370;2023-01-26T06:04:05;3.10;;;0.70;;
74535;SDS011;63013;51.104;-115.370;2023-01-26T06:06:35;1.80;;;0.60;;
74535;SDS011;63013;51.104;-115.370;2023-01-26T06:09:03;0.90;;;0.40;;
74535;SDS011;63013;51.104;-115.370;2023-01-26T06:11:33;1.80;;;0.50;;
74535;SDS011;63013;51.104;-115.370;2023-01-26T06:14:01;1.40;;;0.60;;
74535;SDS011;63013;51.104;-115.370;2023-01-26T06:16:28;1.20;;;0.40;;
74535;SDS011;63013;51.104;-115.370;2023-01-26T06:18:55;1.50;;;0.40;;
74535;SDS011;63013;51.104;-115.370;2023-01-26T06:21:23;1.80;;;0.50;;
74535;SDS011;63013;51.104;-115.370;2023-01-26T06:23:50;2.60;;;0.60;;
74535;SDS011;63013;51.104;-115.370;2023-01-26T06:26:17;1.30;;;0.60;;
74535;SDS011;63013;51.104;-115.370;2023-01-26T06:28:44;0.40;;;0.40;;
74535;SDS011;63013;51.104;-115.370;2023-01-26T06:31:12;1.60;;;0.60;;
74535;SDS011;63013;51.104;-115.370;2023-01-26T06:33:39;1.40;;;0.50;;
74535;SDS011;63013;51.104;-115.370;2023-01-26T06:36:11;1.10;;;0.50;;
74535;SDS011;63013;51.104;-115.370;2023-01-26T06:38:49;1.00;;;0.60;;
74535;SDS011;63013;51.104;-115.370;2023-01-26T06:41:20;1.60;;;0.60;;
74535;SDS011;63013;51.104;-115.370;2023-01-26T06:43:53;1.40;;;0.50;;
74535;SDS011;63013;51.104;-115.370;2023-01-26T06:46:21;1.40;;;0.50;;
74535;SDS011;63013;51.104;-115.370;2023-01-26T06:48:48;1.00;;;0.50;;
74535;SDS011;63013;51.104;-115.370;2023-01-26T06:54:01;1.20;;;0.50;;
74535;SDS011;63013;51.104;-115.370;2023-01-26T06:56:28;1.30;;;0.60;;
74535;SDS011;63013;51.104;-115.370;2023-01-26T06:58:55;1.10;;;0.40;;
74535;SDS011;63013;51.104;-115.370;2023-01-26T07:01:24;1.90;;;0.60;;
74535;SDS011;63013;51.104;-115.370;2023-01-26T07:03:53;0.70;;;0.40;;
74535;SDS011;63013;51.104;-115.370;2023-01-26T07:06:21;1.00;;;0.50;;
74535;SDS011;63013;51.104;-115.370;2023-01-26T07:08:54;1.10;;;0.50;;
74535;SDS011;63013;51.104;-115.370;2023-01-26T07:11:21;1.30;;;0.50;;
74535;SDS011;63013;51.104;-115.370;2023-01-26T07:13:51;2.50;;;0.60;;
74535;SDS011;63013;51.104;-115.370;2023-01-26T07:16:18;2.10;;;0.50;;
74535;SDS011;63013;51.104;-115.370;2023-01-26T07:18:45;1.30;;;0.40;;
74535;SDS011;63013;51.104;-115.370;2023-01-26T07:21:15;1.50;;;0.40;;
74535;SDS011;63013;51.104;-115.370;2023-01-26T07:23:48;2.90;;;0.40;;
74535;SDS011;63013;51.104;-115.370;2023-01-26T07:26:17;0.80;;;0.50;;
74535;SDS011;63013;51.104;-115.370;2023-01-26T07:28:45;1.10;;;0.40;;
74535;SDS011;63013;51.104;-115.370;2023-01-26T07:31:12;0.50;;;0.40;;
74535;SDS011;63013;51.104;-115.370;2023-01-26T07:33:40;0.90;;;0.50;;
74535;SDS011;63013;51.104;-115.370;2023-01-26T07:36:13;1.00;;;0.50;;
74535;SDS011;63013;51.104;-115.370;2023-01-26T07:38:40;0.90;;;0.40;;
74535;SDS011;63013;51.104;-115.370;2023-01-26T07:41:13;1.20;;;0.60;;
74535;SDS011;63013;51.104;-115.370;2023-01-26T07:43:41;1.00;;;0.50;;
74535;SDS011;63013;51.104;-115.370;2023-01-26T07:46:11;1.00;;;0.40;;
74535;SDS011;63013;51.104;-115.370;2023-01-26T07:48:38;1.50;;;0.50;;
74535;SDS011;63013;51.104;-115.370;2023-01-26T07:51:07;1.30;;;0.50;;
74535;SDS011;63013;51.104;-115.370;2023-01-26T07:53:42;1.10;;;0.50;;
74535;SDS011;63013;51.104;-115.370;2023-01-26T07:56:19;1.10;;;0.50;;
74535;SDS011;63013;51.104;-115.370;2023-01-26T07:58:51;0.80;;;0.60;;
74535;SDS011;63013;51.104;-115.370;2023-01-26T08:01:19;1.00;;;0.50;;
74535;SDS011;63013;51.104;-115.370;2023-01-26T08:03:50;1.80;;;0.60;;
74535;SDS011;63013;51.104;-115.370;2023-01-26T08:06:19;1.40;;;0.50;;
74535;SDS011;63013;51.104;-115.370;2023-01-26T08:08:49;1.50;;;0.50;;
74535;SDS011;63013;51.104;-115.370;2023-01-26T08:11:21;1.20;;;0.40;;
74535;SDS011;63013;51.104;-115.370;2023-01-26T08:13:59;0.60;;;0.40;;
74535;SDS011;63013;51.104;-115.370;2023-01-26T08:16:26;1.20;;;0.40;;
74535;SDS011;63013;51.104;-115.370;2023-01-26T08:18:54;0.90;;;0.50;;
74535;SDS011;63013;51.104;-115.370;2023-01-26T08:21:21;1.40;;;0.50;;
74535;SDS011;63013;51.104;-115.370;2023-01-26T08:23:51;1.00;;;0.50;;
74535;SDS011;63013;51.104;-115.370;2023-01-26T08:26:19;0.50;;;0.40;;
74535;SDS011;63013;51.104;-115.370;2023-01-26T08:28:47;1.10;;;0.40;;
74535;SDS011;63013;51.104;-115.370;2023-01-26T08:31:17;1.00;;;0.50;;
74535;SDS011;63013;51.104;-115.370;2023-01-26T08:33:47;0.90;;;0.40;;
74535;SDS011;63013;51.104;-115.370;2023-01-26T08:36:16;1.40;;;0.40;;
74535;SDS011;63013;51.104;-115.370;2023-01-26T08:38:45;0.50;;;0.30;;
74535;SDS011;63013;51.104;-115.370;2023-01-26T08:41:12;0.70;;;0.30;;
74535;SDS011;63013;51.104;-115.370;2023-01-26T08:43:40;1.10;;;0.40;;
74535;SDS011;63013;51.104;-115.370;2023-01-26T08:46:07;1.60;;;0.50;;
74535;SDS011;63013;51.104;-115.370;2023-01-26T08:48:35;0.90;;;0.50;;
74535;SDS011;63013;51.104;-115.370;2023-01-26T08:51:05;0.80;;;0.40;;
74535;SDS011;63013;51.104;-115.370;2023-01-26T08:53:34;1.60;;;0.40;;
74535;SDS011;63013;51.104;-115.370;2023-01-26T08:56:07;1.00;;;0.40;;
74535;SDS011;63013;51.104;-115.370;2023-01-26T08:58:36;0.70;;;0.50;;
74535;SDS011;63013;51.104;-115.370;2023-01-26T09:01:12;1.30;;;0.50;;
74535;SDS011;63013;51.104;-115.370;2023-01-26T09:03:41;0.90;;;0.40;;
74535;SDS011;63013;51.104;-115.370;2023-01-26T09:06:11;0.50;;;0.40;;
74535;SDS011;63013;51.104;-115.370;2023-01-26T09:08:40;1.00;;;0.50;;
74535;SDS011;63013;51.104;-115.370;2023-01-26T09:11:08;0.80;;;0.40;;
74535;SDS011;63013;51.104;-115.370;2023-01-26T09:13:36;1.00;;;0.30;;
74535;SDS011;63013;51.104;-115.370;2023-01-26T09:16:14;0.30;;;0.30;;
74535;SDS011;63013;51.104;-115.370;2023-01-26T09:18:47;0.80;;;0.40;;
74535;SDS011;63013;51.104;-115.370;2023-01-26T09:21:19;1.20;;;0.50;;
74535;SDS011;63013;51.104;-115.370;2023-01-26T09:23:49;0.80;;;0.40;;
74535;SDS011;63013;51.104;-115.370;2023-01-26T09:26:16;0.90;;;0.40;;
74535;SDS011;63013;51.104;-115.370;2023-01-26T09:28:47;1.10;;;0.30;;
74535;SDS011;63013;51.104;-115.370;2023-01-26T09:31:16;1.50;;;0.40;;
74535;SDS011;63013;51.104;-115.370;2023-01-26T09:33:44;1.60;;;0.40;;
74535;SDS011;63013;51.104;-115.370;2023-01-26T09:36:11;0.60;;;0.40;;
74535;SDS011;63013;51.104;-115.370;2023-01-26T09:38:42;0.70;;;0.40;;
74535;SDS011;63013;51.104;-115.370;2023-01-26T09:41:17;0.50;;;0.30;;
74535;SDS011;63013;51.104;-115.370;2023-01-26T09:44:00;0.90;;;0.40;;
74535;SDS011;63013;51.104;-115.370;2023-01-26T09:52:27;1.60;;;0.40;;
74535;SDS011;63013;51.104;-115.370;2023-01-26T09:55:04;0.50;;;0.40;;
74535;SDS011;63013;51.104;-115.370;2023-01-26T09:57:48;0.40;;;0.30;;
74535;SDS011;63013;51.104;-115.370;2023-01-26T10:06:06;0.80;;;0.40;;
74535;SDS011;63013;51.104;-115.370;2023-01-26T10:08:40;0.80;;;0.40;;
74535;SDS011;63013;51.104;-115.370;2023-01-26T10:11:24;0.40;;;0.30;;
74535;SDS011;63013;51.104;-115.370;2023-01-26T10:14:17;1.10;;;0.30;;
74535;SDS011;63013;51.104;-115.370;2023-01-26T10:16:49;0.60;;;0.30;;
74535;SDS011;63013;51.104;-115.370;2023-01-26T10:19:35;0.70;;;0.40;;
74535;SDS011;63013;51.104;-115.370;2023-01-26T10:25:40;0.90;;;0.40;;
74535;SDS011;63013;51.104;-115.370;2023-01-26T10:28:30;0.60;;;0.30;;
74535;SDS011;63013;51.104;-115.370;2023-01-26T10:31:04;0.40;;;0.30;;
74535;SDS011;63013;51.104;-115.370;2023-01-26T10:33:37;1.10;;;0.50;;
74535;SDS011;63013;51.104;-115.370;2023-01-26T10:36:12;0.50;;;0.30;;
74535;SDS011;63013;51.104;-115.370;2023-01-26T10:38:41;0.40;;;0.30;;
74535;SDS011;63013;51.104;-115.370;2023-01-26T10:43:40;0.40;;;0.40;;
74535;SDS011;63013;51.104;-115.370;2023-01-26T10:46:38;0.50;;;0.30;;
74535;SDS011;63013;51.104;-115.370;2023-01-26T10:52:26;0.60;;;0.40;;
74535;SDS011;63013;51.104;-115.370;2023-01-26T10:54:33;1.00;;;0.30;;
74535;SDS011;63013;51.104;-115.370;2023-01-26T10:57:18;0.80;;;0.30;;
74535;SDS011;63013;51.104;-115.370;2023-01-26T10:59:59;0.30;;;0.30;;
74535;SDS011;63013;51.104;-115.370;2023-01-26T11:02:35;0.50;;;0.30;;
74535;SDS011;63013;51.104;-115.370;2023-01-26T11:05:13;0.50;;;0.30;;
74535;SDS011;63013;51.104;-115.370;2023-01-26T11:07:47;0.90;;;0.30;;
74535;SDS011;63013;51.104;-115.370;2023-01-26T11:10:31;1.10;;;0.40;;
74535;SDS011;63013;51.104;-115.370;2023-01-26T11:13:18;0.60;;;0.30;;
74535;SDS011;63013;51.104;-115.370;2023-01-26T11:16:13;0.60;;;0.30;;
74535;SDS011;63013;51.104;-115.370;2023-01-26T11:22:41;0.60;;;0.30;;
74535;SDS011;63013;51.104;-115.370;2023-01-26T11:25:43;0.90;;;0.50;;
74535;SDS011;63013;51.104;-115.370;2023-01-26T11:28:55;0.70;;;0.40;;
74535;SDS011;63013;51.104;-115.370;2023-01-26T11:41:17;0.30;;;0.30;;
74535;SDS011;63013;51.104;-115.370;2023-01-26T11:46:55;0.60;;;0.30;;
74535;SDS011;63013;51.104;-115.370;2023-01-26T11:49:44;0.60;;;0.30;;
74535;SDS011;63013;51.104;-115.370;2023-01-26T11:52:47;0.70;;;0.30;;
74535;SDS011;63013;51.104;-115.370;2023-01-26T12:01:34;0.80;;;0.30;;
74535;SDS011;63013;51.104;-115.370;2023-01-26T12:04:02;0.50;;;0.30;;
74535;SDS011;63013;51.104;-115.370;2023-01-26T12:06:41;0.50;;;0.30;;
74535;SDS011;63013;51.104;-115.370;2023-01-26T12:15:10;0.80;;;0.30;;
74535;SDS011;63013;51.104;-115.370;2023-01-26T12:21:04;0.50;;;0.30;;
74535;SDS011;63013;51.104;-115.370;2023-01-26T12:23:46;0.40;;;0.30;;
74535;SDS011;63013;51.104;-115.370;2023-01-26T12:26:26;0.20;;;0.20;;
74535;SDS011;63013;51.104;-115.370;2023-01-26T12:29:27;0.50;;;0.30;;
74535;SDS011;63013;51.104;-115.370;2023-01-26T12:32:09;0.40;;;0.40;;
74535;SDS011;63013;51.104;-115.370;2023-01-26T12:34:38;0.80;;;0.40;;
74535;SDS011;63013;51.104;-115.370;2023-01-26T12:37:28;0.40;;;0.20;;
74535;SDS011;63013;51.104;-115.370;2023-01-26T12:40:29;0.90;;;0.60;;
74535;SDS011;63013;51.104;-115.370;2023-01-26T12:43:35;0.70;;;0.30;;
74535;SDS011;63013;51.104;-115.370;2023-01-26T12:46:13;0.60;;;0.30;;
74535;SDS011;63013;51.104;-115.370;2023-01-26T12:48:47;0.90;;;0.40;;
74535;SDS011;63013;51.104;-115.370;2023-01-26T12:51:29;0.30;;;0.30;;
74535;SDS011;63013;51.104;-115.370;2023-01-26T12:54:18;0.90;;;0.30;;
74535;SDS011;63013;51.104;-115.370;2023-01-26T12:57:17;0.40;;;0.30;;
74535;SDS011;63013;51.104;-115.370;2023-01-26T12:59:50;0.50;;;0.30;;
74535;SDS011;63013;51.104;-115.370;2023-01-26T13:04:53;0.50;;;0.30;;
74535;SDS011;63013;51.104;-115.370;2023-01-26T13:07:28;0.50;;;0.30;;
74535;SDS011;63013;51.104;-115.370;2023-01-26T13:12:53;0.50;;;0.30;;
74535;SDS011;63013;51.104;-115.370;2023-01-26T13:15:48;0.60;;;0.30;;
74535;SDS011;63013;51.104;-115.370;2023-01-26T13:18:57;0.60;;;0.40;;
74535;SDS011;63013;51.104;-115.370;2023-01-26T13:26:55;0.90;;;0.30;;
74535;SDS011;63013;51.104;-115.370;2023-01-26T13:29:27;0.40;;;0.20;;
74535;SDS011;63013;51.104;-115.370;2023-01-26T13:34:54;0.30;;;0.30;;
74535;SDS011;63013;51.104;-115.370;2023-01-26T13:48:48;0.90;;;0.30;;
74535;SDS011;63013;51.104;-115.370;2023-01-26T13:54:13;0.50;;;0.40;;
74535;SDS011;63013;51.104;-115.370;2023-01-26T13:57:06;0.50;;;0.30;;
74535;SDS011;63013;51.104;-115.370;2023-01-26T13:59:56;0.30;;;0.20;;
74535;SDS011;63013;51.104;-115.370;2023-01-26T14:02:33;0.50;;;0.30;;
74535;SDS011;63013;51.104;-115.370;2023-01-26T14:05:03;0.40;;;0.40;;
74535;SDS011;63013;51.104;-115.370;2023-01-26T14:07:35;0.50;;;0.30;;
74535;SDS011;63013;51.104;-115.370;2023-01-26T14:10:16;0.40;;;0.30;;
74535;SDS011;63013;51.104;-115.370;2023-01-26T14:12:49;0.20;;;0.20;;
74535;SDS011;63013;51.104;-115.370;2023-01-26T14:15:28;0.90;;;0.30;;
74535;SDS011;63013;51.104;-115.370;2023-01-26T14:18:03;0.50;;;0.30;;
74535;SDS011;63013;51.104;-115.370;2023-01-26T14:20:36;0.20;;;0.20;;
74535;SDS011;63013;51.104;-115.370;2023-01-26T14:25:47;0.30;;;0.30;;
74535;SDS011;63013;51.104;-115.370;2023-01-26T14:28:34;0.60;;;0.30;;
74535;SDS011;63013;51.104;-115.370;2023-01-26T14:31:17;0.50;;;0.40;;
74535;SDS011;63013;51.104;-115.370;2023-01-26T14:33:48;0.50;;;0.30;;
74535;SDS011;63013;51.104;-115.370;2023-01-26T14:36:20;0.30;;;0.20;;
74535;SDS011;63013;51.104;-115.370;2023-01-26T14:38:51;0.30;;;0.30;;
74535;SDS011;63013;51.104;-115.370;2023-01-26T14:41:33;1.30;;;0.30;;
74535;SDS011;63013;51.104;-115.370;2023-01-26T14:44:04;0.50;;;0.40;;
74535;SDS011;63013;51.104;-115.370;2023-01-26T14:47:04;0.50;;;0.30;;
74535;SDS011;63013;51.104;-115.370;2023-01-26T14:49:43;0.70;;;0.30;;
74535;SDS011;63013;51.104;-115.370;2023-01-26T14:52:24;0.40;;;0.20;;
74535;SDS011;63013;51.104;-115.370;2023-01-26T14:54:56;0.80;;;0.30;;
74535;SDS011;63013;51.104;-115.370;2023-01-26T14:57:31;0.50;;;0.30;;
74535;SDS011;63013;51.104;-115.370;2023-01-26T15:00:00;0.30;;;0.20;;
74535;SDS011;63013;51.104;-115.370;2023-01-26T15:02:41;0.30;;;0.30;;
74535;SDS011;63013;51.104;-115.370;2023-01-26T15:05:17;0.40;;;0.30;;
74535;SDS011;63013;51.104;-115.370;2023-01-26T15:10:32;0.40;;;0.30;;
74535;SDS011;63013;51.104;-115.370;2023-01-26T15:13:34;0.30;;;0.30;;
74535;SDS011;63013;51.104;-115.370;2023-01-26T15:16:23;0.30;;;0.20;;
74535;SDS011;63013;51.104;-115.370;2023-01-26T15:19:04;0.30;;;0.30;;
74535;SDS011;63013;51.104;-115.370;2023-01-26T15:21:50;0.30;;;0.30;;
74535;SDS011;63013;51.104;-115.370;2023-01-26T15:24:18;0.50;;;0.30;;
74535;SDS011;63013;51.104;-115.370;2023-01-26T15:26:46;0.30;;;0.30;;
74535;SDS011;63013;51.104;-115.370;2023-01-26T15:29:26;0.30;;;0.30;;
74535;SDS011;63013;51.104;-115.370;2023-01-26T15:31:57;0.40;;;0.40;;
74535;SDS011;63013;51.104;-115.370;2023-01-26T15:34:34;0.20;;;0.20;;
74535;SDS011;63013;51.104;-115.370;2023-01-26T15:37:29;0.40;;;0.20;;
74535;SDS011;63013;51.104;-115.370;2023-01-26T15:39:57;0.30;;;0.30;;
74535;SDS011;63013;51.104;-115.370;2023-01-26T15:42:26;0.30;;;0.20;;
74535;SDS011;63013;51.104;-115.370;2023-01-26T15:44:58;0.50;;;0.30;;
74535;SDS011;63013;51.104;-115.370;2023-01-26T15:47:25;0.20;;;0.20;;
74535;SDS011;63013;51.104;-115.370;2023-01-26T15:49:52;0.30;;;0.30;;
74535;SDS011;63013;51.104;-115.370;2023-01-26T15:52:27;1.00;;;0.30;;
74535;SDS011;63013;51.104;-115.370;2023-01-26T15:54:58;0.40;;;0.30;;
74535;SDS011;63013;51.104;-115.370;2023-01-26T15:57:28;0.80;;;0.30;;
74535;SDS011;63013;51.104;-115.370;2023-01-26T15:59:56;0.80;;;0.30;;
74535;SDS011;63013;51.104;-115.370;2023-01-26T16:02:23;0.20;;;0.20;;
74535;SDS011;63013;51.104;-115.370;2023-01-26T16:04:51;1.20;;;0.30;;
74535;SDS011;63013;51.104;-115.370;2023-01-26T16:07:19;0.20;;;0.20;;
74535;SDS011;63013;51.104;-115.370;2023-01-26T16:09:55;0.40;;;0.30;;
74535;SDS011;63013;51.104;-115.370;2023-01-26T16:12:24;0.30;;;0.20;;
74535;SDS011;63013;51.104;-115.370;2023-01-26T16:15:01;0.30;;;0.30;;
74535;SDS011;63013;51.104;-115.370;2023-01-26T16:17:47;0.40;;;0.40;;
74535;SDS011;63013;51.104;-115.370;2023-01-26T16:20:14;0.50;;;0.40;;
74535;SDS011;63013;51.104;-115.370;2023-01-26T16:22:41;0.30;;;0.20;;
74535;SDS011;63013;51.104;-115.370;2023-01-26T16:25:27;0.50;;;0.40;;